sensor_id;sensor_type;location;lat;lon;timestamp;P1;durP1;ratioP1;P2;durP2;ratioP2
18931;SDS011;9598;50.954;3.112;2023-06-10T00:01:10;8.60;;;7.80;;
18931;SDS011;9598;50.954;3.112;2023-06-10T00:06:12;8.95;;;8.05;;
18931;SDS011;9598;50.954;3.112;2023-06-10T00:11:14;8.13;;;7.43;;
18931;SDS011;9598;50.954;3.112;2023-06-10T00:16:17;8.55;;;7.75;;
18931;SDS011;9598;50.954;3.112;2023-06-10T00:21:19;9.23;;;7.90;;
18931;SDS011;9598;50.954;3.112;2023-06-10T00:26:21;8.45;;;7.72;;
18931;SDS011;9598;50.954;3.112;2023-06-10T00:31:25;9.73;;;8.10;;
18931;SDS011;9598;50.954;3.112;2023-06-10T00:36:27;8.73;;;8.02;;
18931;SDS011;9598;50.954;3.112;2023-06-10T00:41:30;9.32;;;8.43;;
18931;SDS011;9598;50.954;3.112;2023-06-10T00:46:35;9.77;;;8.90;;
18931;SDS011;9598;50.954;3.112;2023-06-10T00:51:37;9.55;;;8.57;;
18931;SDS011;9598;50.954;3.112;2023-06-10T00:56:40;9.35;;;8.50;;
18931;SDS011;9598;50.954;3.112;2023-06-10T01:01:45;10.05;;;9.15;;
18931;SDS011;9598;50.954;3.112;2023-06-10T01:06:52;11.15;;;10.25;;
18931;SDS011;9598;50.954;3.112;2023-06-10T01:12:05;10.32;;;9.48;;
18931;SDS011;9598;50.954;3.112;2023-06-10T01:17:12;10.68;;;9.77;;
18931;SDS011;9598;50.954;3.112;2023-06-10T01:22:18;11.05;;;10.25;;
18931;SDS011;9598;50.954;3.112;2023-06-10T01:27:21;11.10;;;10.20;;
18931;SDS011;9598;50.954;3.112;2023-06-10T01:32:26;11.73;;;10.90;;
18931;SDS011;9598;50.954;3.112;2023-06-10T01:37:33;11.15;;;10.13;;
18931;SDS011;9598;50.954;3.112;2023-06-10T01:42:37;11.43;;;10.63;;
18931;SDS011;9598;50.954;3.112;2023-06-10T01:47:39;11.35;;;10.55;;
18931;SDS011;9598;50.954;3.112;2023-06-10T01:52:42;11.65;;;10.65;;
18931;SDS011;9598;50.954;3.112;2023-06-10T01:57:44;11.65;;;10.57;;
18931;SDS011;9598;50.954;3.112;2023-06-10T02:02:47;11.77;;;10.73;;
18931;SDS011;9598;50.954;3.112;2023-06-10T02:07:51;11.48;;;10.48;;
18931;SDS011;9598;50.954;3.112;2023-06-10T02:12:55;11.52;;;10.52;;
18931;SDS011;9598;50.954;3.112;2023-06-10T02:17:57;11.25;;;10.35;;
18931;SDS011;9598;50.954;3.112;2023-06-10T02:23:02;11.50;;;10.43;;
18931;SDS011;9598;50.954;3.112;2023-06-10T02:28:04;11.38;;;10.38;;
18931;SDS011;9598;50.954;3.112;2023-06-10T02:33:06;11.50;;;10.52;;
18931;SDS011;9598;50.954;3.112;2023-06-10T02:38:12;13.23;;;12.00;;
18931;SDS011;9598;50.954;3.112;2023-06-10T02:43:14;11.95;;;10.70;;
18931;SDS011;9598;50.954;3.112;2023-06-10T02:48:17;11.48;;;10.57;;
18931;SDS011;9598;50.954;3.112;2023-06-10T02:53:21;12.85;;;11.75;;
18931;SDS011;9598;50.954;3.112;2023-06-10T02:58:29;12.85;;;11.55;;
18931;SDS011;9598;50.954;3.112;2023-06-10T03:03:32;12.20;;;11.20;;
18931;SDS011;9598;50.954;3.112;2023-06-10T03:08:42;12.73;;;11.63;;
18931;SDS011;9598;50.954;3.112;2023-06-10T03:13:49;12.07;;;11.07;;
18931;SDS011;9598;50.954;3.112;2023-06-10T03:18:52;12.73;;;11.65;;
18931;SDS011;9598;50.954;3.112;2023-06-10T03:23:56;11.90;;;10.95;;
18931;SDS011;9598;50.954;3.112;2023-06-10T03:28:58;12.43;;;11.48;;
18931;SDS011;9598;50.954;3.112;2023-06-10T03:34:00;12.70;;;11.55;;
18931;SDS011;9598;50.954;3.112;2023-06-10T03:39:04;12.38;;;11.40;;
18931;SDS011;9598;50.954;3.112;2023-06-10T03:44:06;11.93;;;10.77;;
18931;SDS011;9598;50.954;3.112;2023-06-10T03:49:09;12.40;;;11.40;;
18931;SDS011;9598;50.954;3.112;2023-06-10T03:54:13;12.90;;;11.63;;
18931;SDS011;9598;50.954;3.112;2023-06-10T03:59:15;13.00;;;11.90;;
18931;SDS011;9598;50.954;3.112;2023-06-10T04:04:17;11.95;;;11.05;;
18931;SDS011;9598;50.954;3.112;2023-06-10T04:09:22;12.05;;;10.90;;
18931;SDS011;9598;50.954;3.112;2023-06-10T04:14:24;13.50;;;12.30;;
18931;SDS011;9598;50.954;3.112;2023-06-10T04:19:27;13.13;;;12.00;;
18931;SDS011;9598;50.954;3.112;2023-06-10T04:24:33;12.45;;;11.27;;
18931;SDS011;9598;50.954;3.112;2023-06-10T04:29:36;14.10;;;12.80;;
18931;SDS011;9598;50.954;3.112;2023-06-10T04:34:38;14.63;;;13.40;;
18931;SDS011;9598;50.954;3.112;2023-06-10T04:39:42;14.27;;;13.07;;
18931;SDS011;9598;50.954;3.112;2023-06-10T04:44:44;14.85;;;13.65;;
18931;SDS011;9598;50.954;3.112;2023-06-10T04:49:47;14.05;;;12.65;;
18931;SDS011;9598;50.954;3.112;2023-06-10T04:54:50;15.10;;;13.85;;
18931;SDS011;9598;50.954;3.112;2023-06-10T04:59:52;14.55;;;13.25;;
18931;SDS011;9598;50.954;3.112;2023-06-10T05:04:55;15.27;;;13.90;;
18931;SDS011;9598;50.954;3.112;2023-06-10T05:09:59;14.07;;;12.98;;
18931;SDS011;9598;50.954;3.112;2023-06-10T05:15:01;14.30;;;13.15;;
18931;SDS011;9598;50.954;3.112;2023-06-10T05:20:04;14.50;;;13.30;;
18931;SDS011;9598;50.954;3.112;2023-06-10T05:25:08;14.90;;;13.57;;
18931;SDS011;9598;50.954;3.112;2023-06-10T05:30:10;15.23;;;13.90;;
18931;SDS011;9598;50.954;3.112;2023-06-10T05:35:13;14.45;;;13.27;;
18931;SDS011;9598;50.954;3.112;2023-06-10T05:40:17;15.45;;;14.07;;
18931;SDS011;9598;50.954;3.112;2023-06-10T05:45:19;14.15;;;12.98;;
18931;SDS011;9598;50.954;3.112;2023-06-10T05:50:21;14.35;;;13.15;;
18931;SDS011;9598;50.954;3.112;2023-06-10T05:55:24;14.00;;;12.85;;
18931;SDS011;9598;50.954;3.112;2023-06-10T06:00:26;14.20;;;12.93;;
18931;SDS011;9598;50.954;3.112;2023-06-10T06:05:28;14.38;;;13.05;;
18931;SDS011;9598;50.954;3.112;2023-06-10T06:10:36;13.27;;;12.20;;
18931;SDS011;9598;50.954;3.112;2023-06-10T06:15:38;13.82;;;12.65;;
18931;SDS011;9598;50.954;3.112;2023-06-10T06:20:40;12.98;;;11.88;;
18931;SDS011;9598;50.954;3.112;2023-06-10T06:25:44;13.30;;;12.20;;
18931;SDS011;9598;50.954;3.112;2023-06-10T06:30:46;11.95;;;11.05;;
18931;SDS011;9598;50.954;3.112;2023-06-10T06:35:48;12.52;;;11.43;;
18931;SDS011;9598;50.954;3.112;2023-06-10T06:40:52;12.52;;;11.32;;
18931;SDS011;9598;50.954;3.112;2023-06-10T06:45:55;12.55;;;11.43;;
18931;SDS011;9598;50.954;3.112;2023-06-10T06:50:57;11.70;;;10.77;;
18931;SDS011;9598;50.954;3.112;2023-06-10T06:56:01;10.52;;;9.70;;
18931;SDS011;9598;50.954;3.112;2023-06-10T07:01:03;11.38;;;10.57;;
18931;SDS011;9598;50.954;3.112;2023-06-10T07:06:06;11.88;;;10.90;;
18931;SDS011;9598;50.954;3.112;2023-06-10T07:11:09;11.35;;;10.25;;
18931;SDS011;9598;50.954;3.112;2023-06-10T07:16:11;11.00;;;9.90;;
18931;SDS011;9598;50.954;3.112;2023-06-10T07:21:14;11.07;;;10.02;;
18931;SDS011;9598;50.954;3.112;2023-06-10T07:26:17;9.90;;;9.10;;
18931;SDS011;9598;50.954;3.112;2023-06-10T07:31:19;11.43;;;10.25;;
18931;SDS011;9598;50.954;3.112;2023-06-10T07:36:21;10.50;;;9.57;;
18931;SDS011;9598;50.954;3.112;2023-06-10T07:41:25;10.15;;;9.18;;
18931;SDS011;9598;50.954;3.112;2023-06-10T07:46:27;11.15;;;9.93;;
18931;SDS011;9598;50.954;3.112;2023-06-10T07:51:29;10.98;;;10.07;;
18931;SDS011;9598;50.954;3.112;2023-06-10T07:56:33;11.00;;;10.00;;
18931;SDS011;9598;50.954;3.112;2023-06-10T08:01:35;10.55;;;9.60;;
18931;SDS011;9598;50.954;3.112;2023-06-10T08:06:39;10.73;;;9.82;;
18931;SDS011;9598;50.954;3.112;2023-06-10T08:11:43;10.85;;;9.80;;
18931;SDS011;9598;50.954;3.112;2023-06-10T08:16:45;10.13;;;9.27;;
18931;SDS011;9598;50.954;3.112;2023-06-10T08:21:47;10.15;;;9.32;;
18931;SDS011;9598;50.954;3.112;2023-06-10T08:26:50;9.40;;;8.73;;
18931;SDS011;9598;50.954;3.112;2023-06-10T08:31:52;10.23;;;9.32;;
18931;SDS011;9598;50.954;3.112;2023-06-10T08:36:54;10.38;;;9.40;;
18931;SDS011;9598;50.954;3.112;2023-06-10T08:42:00;10.02;;;9.13;;
18931;SDS011;9598;50.954;3.112;2023-06-10T08:47:11;10.27;;;9.38;;
18931;SDS011;9598;50.954;3.112;2023-06-10T08:52:17;9.98;;;8.98;;
18931;SDS011;9598;50.954;3.112;2023-06-10T08:57:21;9.35;;;8.65;;
18931;SDS011;9598;50.954;3.112;2023-06-10T09:02:24;8.82;;;8.15;;
18931;SDS011;9598;50.954;3.112;2023-06-10T09:07:26;9.02;;;8.23;;
18931;SDS011;9598;50.954;3.112;2023-06-10T09:12:33;8.88;;;8.05;;
18931;SDS011;9598;50.954;3.112;2023-06-10T09:17:35;9.90;;;9.05;;
18931;SDS011;9598;50.954;3.112;2023-06-10T09:22:38;8.48;;;7.72;;
18931;SDS011;9598;50.954;3.112;2023-06-10T09:27:45;8.55;;;7.85;;
18931;SDS011;9598;50.954;3.112;2023-06-10T09:32:50;8.75;;;7.85;;
18931;SDS011;9598;50.954;3.112;2023-06-10T09:37:54;8.32;;;7.55;;
18931;SDS011;9598;50.954;3.112;2023-06-10T09:42:59;8.98;;;8.18;;
18931;SDS011;9598;50.954;3.112;2023-06-10T09:48:02;7.82;;;7.13;;
18931;SDS011;9598;50.954;3.112;2023-06-10T09:53:04;8.68;;;7.95;;
18931;SDS011;9598;50.954;3.112;2023-06-10T09:58:09;8.02;;;7.32;;
18931;SDS011;9598;50.954;3.112;2023-06-10T10:03:12;9.02;;;8.20;;
18931;SDS011;9598;50.954;3.112;2023-06-10T10:08:23;8.80;;;8.00;;
18931;SDS011;9598;50.954;3.112;2023-06-10T10:13:27;8.65;;;7.90;;
18931;SDS011;9598;50.954;3.112;2023-06-10T10:18:30;8.95;;;8.15;;
18931;SDS011;9598;50.954;3.112;2023-06-10T10:23:34;7.97;;;7.20;;
18931;SDS011;9598;50.954;3.112;2023-06-10T10:28:44;7.65;;;6.97;;
18931;SDS011;9598;50.954;3.112;2023-06-10T10:33:54;7.60;;;6.97;;
18931;SDS011;9598;50.954;3.112;2023-06-10T10:38:58;8.07;;;7.30;;
18931;SDS011;9598;50.954;3.112;2023-06-10T10:44:04;7.10;;;6.47;;
18931;SDS011;9598;50.954;3.112;2023-06-10T10:49:10;9.25;;;6.57;;
18931;SDS011;9598;50.954;3.112;2023-06-10T10:54:14;6.55;;;5.95;;
18931;SDS011;9598;50.954;3.112;2023-06-10T10:59:18;6.70;;;6.20;;
18931;SDS011;9598;50.954;3.112;2023-06-10T11:04:20;7.47;;;5.85;;
18931;SDS011;9598;50.954;3.112;2023-06-10T11:09:25;6.03;;;5.53;;
18931;SDS011;9598;50.954;3.112;2023-06-10T11:14:30;5.80;;;5.22;;
18931;SDS011;9598;50.954;3.112;2023-06-10T11:19:33;6.05;;;5.55;;
18931;SDS011;9598;50.954;3.112;2023-06-10T11:24:36;6.32;;;5.72;;
18931;SDS011;9598;50.954;3.112;2023-06-10T11:29:40;6.38;;;5.97;;
18931;SDS011;9598;50.954;3.112;2023-06-10T11:34:57;6.57;;;5.97;;
18931;SDS011;9598;50.954;3.112;2023-06-10T11:39:59;6.65;;;6.13;;
18931;SDS011;9598;50.954;3.112;2023-06-10T11:45:03;6.97;;;5.97;;
18931;SDS011;9598;50.954;3.112;2023-06-10T11:50:09;7.00;;;6.32;;
18931;SDS011;9598;50.954;3.112;2023-06-10T11:55:11;6.68;;;6.00;;
18931;SDS011;9598;50.954;3.112;2023-06-10T12:00:15;7.15;;;6.45;;
18931;SDS011;9598;50.954;3.112;2023-06-10T12:05:18;8.63;;;6.53;;
18931;SDS011;9598;50.954;3.112;2023-06-10T12:10:20;7.10;;;5.47;;
18931;SDS011;9598;50.954;3.112;2023-06-10T12:15:24;5.90;;;5.40;;
18931;SDS011;9598;50.954;3.112;2023-06-10T12:20:29;6.32;;;5.72;;
18931;SDS011;9598;50.954;3.112;2023-06-10T12:25:34;6.03;;;5.53;;
18931;SDS011;9598;50.954;3.112;2023-06-10T12:30:38;6.35;;;5.85;;
18931;SDS011;9598;50.954;3.112;2023-06-10T12:35:46;5.63;;;5.30;;
18931;SDS011;9598;50.954;3.112;2023-06-10T12:40:50;12.82;;;6.50;;
18931;SDS011;9598;50.954;3.112;2023-06-10T12:45:54;6.40;;;5.90;;
18931;SDS011;9598;50.954;3.112;2023-06-10T12:50:56;8.10;;;6.18;;
18931;SDS011;9598;50.954;3.112;2023-06-10T12:56:00;7.15;;;5.93;;
18931;SDS011;9598;50.954;3.112;2023-06-10T13:01:04;8.10;;;5.55;;
18931;SDS011;9598;50.954;3.112;2023-06-10T13:06:06;5.90;;;5.40;;
18931;SDS011;9598;50.954;3.112;2023-06-10T13:11:08;5.82;;;5.40;;
18931;SDS011;9598;50.954;3.112;2023-06-10T13:16:12;7.65;;;6.07;;
18931;SDS011;9598;50.954;3.112;2023-06-10T13:21:14;6.80;;;6.32;;
18931;SDS011;9598;50.954;3.112;2023-06-10T13:26:16;6.40;;;5.82;;
18931;SDS011;9598;50.954;3.112;2023-06-10T13:31:20;6.25;;;5.65;;
18931;SDS011;9598;50.954;3.112;2023-06-10T13:36:22;5.78;;;5.38;;
18931;SDS011;9598;50.954;3.112;2023-06-10T13:41:24;7.20;;;6.10;;
18931;SDS011;9598;50.954;3.112;2023-06-10T13:46:30;5.85;;;5.35;;
18931;SDS011;9598;50.954;3.112;2023-06-10T13:51:32;5.75;;;5.35;;
18931;SDS011;9598;50.954;3.112;2023-06-10T13:56:34;6.30;;;5.72;;
18931;SDS011;9598;50.954;3.112;2023-06-10T14:01:39;6.00;;;5.60;;
18931;SDS011;9598;50.954;3.112;2023-06-10T14:06:42;6.82;;;6.22;;
18931;SDS011;9598;50.954;3.112;2023-06-10T14:11:44;6.80;;;5.80;;
18931;SDS011;9598;50.954;3.112;2023-06-10T14:16:49;6.60;;;6.10;;
18931;SDS011;9598;50.954;3.112;2023-06-10T14:21:54;7.90;;;5.97;;
18931;SDS011;9598;50.954;3.112;2023-06-10T14:26:56;7.00;;;5.20;;
18931;SDS011;9598;50.954;3.112;2023-06-10T14:32:00;6.13;;;5.45;;
18931;SDS011;9598;50.954;3.112;2023-06-10T14:37:02;6.38;;;5.88;;
18931;SDS011;9598;50.954;3.112;2023-06-10T14:42:07;6.00;;;5.53;;
18931;SDS011;9598;50.954;3.112;2023-06-10T14:47:12;6.10;;;5.57;;
18931;SDS011;9598;50.954;3.112;2023-06-10T14:52:14;6.53;;;6.00;;
18931;SDS011;9598;50.954;3.112;2023-06-10T14:57:16;5.80;;;5.30;;
18931;SDS011;9598;50.954;3.112;2023-06-10T15:02:19;5.80;;;5.30;;
18931;SDS011;9598;50.954;3.112;2023-06-10T15:07:21;5.97;;;5.47;;
18931;SDS011;9598;50.954;3.112;2023-06-10T15:12:23;7.05;;;5.75;;
18931;SDS011;9598;50.954;3.112;2023-06-10T15:17:29;6.78;;;6.22;;
18931;SDS011;9598;50.954;3.112;2023-06-10T15:22:31;6.47;;;5.97;;
18931;SDS011;9598;50.954;3.112;2023-06-10T15:27:34;6.43;;;5.82;;
18931;SDS011;9598;50.954;3.112;2023-06-10T15:32:37;6.65;;;6.05;;
18931;SDS011;9598;50.954;3.112;2023-06-10T15:37:39;7.03;;;5.90;;
18931;SDS011;9598;50.954;3.112;2023-06-10T15:42:41;7.00;;;6.53;;
18931;SDS011;9598;50.954;3.112;2023-06-10T15:47:45;6.22;;;5.78;;
18931;SDS011;9598;50.954;3.112;2023-06-10T15:52:47;6.45;;;5.95;;
18931;SDS011;9598;50.954;3.112;2023-06-10T15:57:49;7.28;;;6.30;;
18931;SDS011;9598;50.954;3.112;2023-06-10T16:02:52;6.95;;;6.35;;
18931;SDS011;9598;50.954;3.112;2023-06-10T16:07:54;6.63;;;6.03;;
18931;SDS011;9598;50.954;3.112;2023-06-10T16:12:58;6.40;;;6.00;;
18931;SDS011;9598;50.954;3.112;2023-06-10T16:18:01;6.20;;;5.80;;
18931;SDS011;9598;50.954;3.112;2023-06-10T16:23:03;6.68;;;6.18;;
18931;SDS011;9598;50.954;3.112;2023-06-10T16:28:05;7.22;;;6.53;;
18931;SDS011;9598;50.954;3.112;2023-06-10T16:33:09;6.75;;;6.25;;
18931;SDS011;9598;50.954;3.112;2023-06-10T16:38:11;7.28;;;6.55;;
18931;SDS011;9598;50.954;3.112;2023-06-10T16:43:14;7.35;;;6.65;;
18931;SDS011;9598;50.954;3.112;2023-06-10T16:48:17;7.18;;;6.65;;
18931;SDS011;9598;50.954;3.112;2023-06-10T16:53:19;7.22;;;6.65;;
18931;SDS011;9598;50.954;3.112;2023-06-10T16:58:21;6.72;;;6.15;;
18931;SDS011;9598;50.954;3.112;2023-06-10T17:03:24;7.68;;;6.53;;
18931;SDS011;9598;50.954;3.112;2023-06-10T17:08:26;6.75;;;6.30;;
18931;SDS011;9598;50.954;3.112;2023-06-10T17:13:29;7.20;;;6.60;;
18931;SDS011;9598;50.954;3.112;2023-06-10T17:18:32;7.47;;;6.97;;
18931;SDS011;9598;50.954;3.112;2023-06-10T17:23:34;6.82;;;6.32;;
18931;SDS011;9598;50.954;3.112;2023-06-10T17:28:36;7.13;;;6.53;;
18931;SDS011;9598;50.954;3.112;2023-06-10T17:33:39;7.93;;;7.32;;
18931;SDS011;9598;50.954;3.112;2023-06-10T17:38:41;7.72;;;7.03;;
18931;SDS011;9598;50.954;3.112;2023-06-10T17:43:43;7.00;;;6.50;;
18931;SDS011;9598;50.954;3.112;2023-06-10T17:48:47;7.13;;;6.53;;
18931;SDS011;9598;50.954;3.112;2023-06-10T17:53:49;7.18;;;6.63;;
18931;SDS011;9598;50.954;3.112;2023-06-10T17:58:52;8.07;;;7.45;;
18931;SDS011;9598;50.954;3.112;2023-06-10T18:03:55;7.88;;;7.20;;
18931;SDS011;9598;50.954;3.112;2023-06-10T18:08:57;8.15;;;7.45;;
18931;SDS011;9598;50.954;3.112;2023-06-10T18:13:59;8.05;;;7.45;;
18931;SDS011;9598;50.954;3.112;2023-06-10T18:19:02;8.27;;;7.68;;
18931;SDS011;9598;50.954;3.112;2023-06-10T18:24:05;8.38;;;7.57;;
18931;SDS011;9598;50.954;3.112;2023-06-10T18:29:08;8.27;;;7.55;;
18931;SDS011;9598;50.954;3.112;2023-06-10T18:34:12;8.63;;;7.93;;
18931;SDS011;9598;50.954;3.112;2023-06-10T18:39:14;7.80;;;7.10;;
18931;SDS011;9598;50.954;3.112;2023-06-10T18:44:16;12.25;;;8.73;;
18931;SDS011;9598;50.954;3.112;2023-06-10T18:49:20;8.38;;;7.72;;
18931;SDS011;9598;50.954;3.112;2023-06-10T18:54:22;8.93;;;8.10;;
18931;SDS011;9598;50.954;3.112;2023-06-10T18:59:24;8.50;;;7.82;;
18931;SDS011;9598;50.954;3.112;2023-06-10T19:04:28;8.00;;;7.28;;
18931;SDS011;9598;50.954;3.112;2023-06-10T19:09:31;8.48;;;7.75;;
18931;SDS011;9598;50.954;3.112;2023-06-10T19:14:33;8.10;;;7.40;;
18931;SDS011;9598;50.954;3.112;2023-06-10T19:19:36;9.20;;;8.18;;
18931;SDS011;9598;50.954;3.112;2023-06-10T19:24:38;8.32;;;7.60;;
18931;SDS011;9598;50.954;3.112;2023-06-10T19:29:42;8.30;;;7.60;;
18931;SDS011;9598;50.954;3.112;2023-06-10T19:34:46;8.13;;;7.50;;
18931;SDS011;9598;50.954;3.112;2023-06-10T19:39:48;8.80;;;8.10;;
18931;SDS011;9598;50.954;3.112;2023-06-10T19:44:51;9.60;;;8.80;;
18931;SDS011;9598;50.954;3.112;2023-06-10T19:49:54;9.38;;;8.57;;
18931;SDS011;9598;50.954;3.112;2023-06-10T19:54:56;9.40;;;8.55;;
18931;SDS011;9598;50.954;3.112;2023-06-10T19:59:58;9.95;;;8.95;;
18931;SDS011;9598;50.954;3.112;2023-06-10T20:05:02;9.30;;;8.50;;
18931;SDS011;9598;50.954;3.112;2023-06-10T20:10:04;9.05;;;8.25;;
18931;SDS011;9598;50.954;3.112;2023-06-10T20:15:07;9.40;;;8.48;;
18931;SDS011;9598;50.954;3.112;2023-06-10T20:20:11;9.07;;;8.27;;
18931;SDS011;9598;50.954;3.112;2023-06-10T20:25:14;9.50;;;8.25;;
18931;SDS011;9598;50.954;3.112;2023-06-10T20:30:17;8.65;;;8.05;;
18931;SDS011;9598;50.954;3.112;2023-06-10T20:35:21;9.15;;;8.30;;
18931;SDS011;9598;50.954;3.112;2023-06-10T20:40:23;10.20;;;9.27;;
18931;SDS011;9598;50.954;3.112;2023-06-10T20:45:25;12.43;;;11.20;;
18931;SDS011;9598;50.954;3.112;2023-06-10T20:50:29;14.65;;;13.38;;
18931;SDS011;9598;50.954;3.112;2023-06-10T20:55:32;15.02;;;13.73;;
18931;SDS011;9598;50.954;3.112;2023-06-10T21:00:35;14.57;;;13.43;;
18931;SDS011;9598;50.954;3.112;2023-06-10T21:05:38;13.75;;;12.50;;
18931;SDS011;9598;50.954;3.112;2023-06-10T21:10:40;11.48;;;10.30;;
18931;SDS011;9598;50.954;3.112;2023-06-10T21:15:43;11.23;;;10.38;;
18931;SDS011;9598;50.954;3.112;2023-06-10T21:20:46;10.60;;;9.70;;
18931;SDS011;9598;50.954;3.112;2023-06-10T21:25:48;9.98;;;9.07;;
18931;SDS011;9598;50.954;3.112;2023-06-10T21:30:51;10.43;;;9.52;;
18931;SDS011;9598;50.954;3.112;2023-06-10T21:35:54;10.13;;;9.10;;
18931;SDS011;9598;50.954;3.112;2023-06-10T21:40:57;10.50;;;9.50;;
18931;SDS011;9598;50.954;3.112;2023-06-10T21:45:59;10.73;;;9.82;;
18931;SDS011;9598;50.954;3.112;2023-06-10T21:51:04;11.27;;;10.25;;
18931;SDS011;9598;50.954;3.112;2023-06-10T21:56:06;11.30;;;10.35;;
18931;SDS011;9598;50.954;3.112;2023-06-10T22:01:08;15.65;;;14.30;;
18931;SDS011;9598;50.954;3.112;2023-06-10T22:06:12;14.25;;;13.00;;
18931;SDS011;9598;50.954;3.112;2023-06-10T22:11:15;14.55;;;12.95;;
18931;SDS011;9598;50.954;3.112;2023-06-10T22:16:17;14.43;;;12.98;;
18931;SDS011;9598;50.954;3.112;2023-06-10T22:21:21;15.45;;;13.80;;
18931;SDS011;9598;50.954;3.112;2023-06-10T22:26:24;15.38;;;12.57;;
18931;SDS011;9598;50.954;3.112;2023-06-10T22:31:27;14.95;;;13.35;;
18931;SDS011;9598;50.954;3.112;2023-06-10T22:36:31;14.93;;;13.45;;
18931;SDS011;9598;50.954;3.112;2023-06-10T22:41:33;14.02;;;12.60;;
18931;SDS011;9598;50.954;3.112;2023-06-10T22:46:35;15.85;;;13.88;;
18931;SDS011;9598;50.954;3.112;2023-06-10T22:51:38;17.17;;;15.48;;
18931;SDS011;9598;50.954;3.112;2023-06-10T22:56:41;17.67;;;15.40;;
18931;SDS011;9598;50.954;3.112;2023-06-10T23:01:43;16.63;;;15.02;;
18931;SDS011;9598;50.954;3.112;2023-06-10T23:06:46;14.85;;;13.45;;
18931;SDS011;9598;50.954;3.112;2023-06-10T23:11:49;14.88;;;13.30;;
18931;SDS011;9598;50.954;3.112;2023-06-10T23:16:51;14.45;;;13.10;;
18931;SDS011;9598;50.954;3.112;2023-06-10T23:21:55;13.75;;;12.65;;
18931;SDS011;9598;50.954;3.112;2023-06-10T23:26:59;14.90;;;13.73;;
18931;SDS011;9598;50.954;3.112;2023-06-10T23:32:02;13.32;;;12.23;;
18931;SDS011;9598;50.954;3.112;2023-06-10T23:37:06;15.82;;;14.30;;
18931;SDS011;9598;50.954;3.112;2023-06-10T23:42:11;14.82;;;13.55;;
18931;SDS011;9598;50.954;3.112;2023-06-10T23:47:13;13.30;;;12.20;;
18931;SDS011;9598;50.954;3.112;2023-06-10T23:52:17;14.40;;;13.10;;
18931;SDS011;9598;50.954;3.112;2023-06-10T23:57:21;14.30;;;13.02;;
